createdAt,value
2023-03-26T00:01:13.449Z,2.35
2023-03-26T00:03:40.442Z,2.90
2023-03-26T00:06:10.455Z,3.72
2023-03-26T00:08:38.942Z,4.45
2023-03-26T00:11:07.733Z,4.50
2023-03-26T00:13:34.664Z,4.40
2023-03-26T00:16:01.799Z,4.22
2023-03-26T00:18:28.292Z,4.03
2023-03-26T00:20:54.768Z,4.10
2023-03-26T00:23:21.255Z,3.80
2023-03-26T00:25:49.456Z,3.35
2023-03-26T00:28:16.358Z,3.72
2023-03-26T00:30:43.298Z,3.38
2023-03-26T00:33:09.816Z,4.07
2023-03-26T00:35:37.075Z,3.72
2023-03-26T00:42:56.310Z,3.22
2023-03-26T00:45:22.771Z,3.65
2023-03-26T00:47:49.259Z,3.70
2023-03-26T00:50:15.805Z,4.03
2023-03-26T00:52:43.984Z,4.00
2023-03-26T00:55:10.639Z,3.88
2023-03-26T00:57:37.161Z,4.20
2023-03-26T01:00:13.441Z,3.63
2023-03-26T01:02:40.024Z,2.97
2023-03-26T01:05:34.336Z,4.25
2023-03-26T01:08:26.711Z,4.35
2023-03-26T01:10:55.587Z,4.30
2023-03-26T01:13:24.190Z,2.67
2023-03-26T01:15:51.521Z,3.92
2023-03-26T01:18:22.493Z,3.90
2023-03-26T01:20:50.841Z,5.28
2023-03-26T01:23:24.644Z,6.10
2023-03-26T01:26:04.172Z,4.80
2023-03-26T01:28:33.996Z,6.18
2023-03-26T01:31:21.306Z,6.40
2023-03-26T01:34:02.057Z,5.32
2023-03-26T01:36:39.663Z,6.32
2023-03-26T01:39:29.103Z,6.68
2023-03-26T01:42:02.652Z,4.97
2023-03-26T01:44:50.396Z,3.53
2023-03-26T01:47:18.380Z,3.13
2023-03-26T01:49:44.866Z,4.68
2023-03-26T01:52:21.592Z,4.28
2023-03-26T01:54:48.668Z,4.53
2023-03-26T01:57:23.919Z,4.63
2023-03-26T02:00:17.676Z,5.22
2023-03-26T02:02:56.197Z,6.53
2023-03-26T02:05:29.050Z,6.68
2023-03-26T02:08:19.832Z,7.40
2023-03-26T02:10:51.136Z,3.80
2023-03-26T02:13:17.756Z,5.15
2023-03-26T02:16:17.174Z,4.50
2023-03-26T02:18:45.236Z,4.35
2023-03-26T02:21:15.821Z,4.40
2023-03-26T02:23:44.378Z,5.18
2023-03-26T02:26:11.385Z,5.18
2023-03-26T02:28:38.283Z,4.95
2023-03-26T02:31:05.325Z,5.40
2023-03-26T02:33:32.714Z,5.63
2023-03-26T02:35:59.650Z,4.88
2023-03-26T02:38:26.517Z,6.70
2023-03-26T02:40:54.115Z,5.22
2023-03-26T02:43:20.572Z,5.22
2023-03-26T02:45:47.131Z,5.25
2023-03-26T02:48:13.971Z,5.10
2023-03-26T02:50:41.071Z,5.05
2023-03-26T02:53:07.832Z,5.63
2023-03-26T02:55:34.321Z,5.25
2023-03-26T02:58:00.781Z,5.88
2023-03-26T03:00:27.287Z,5.10
2023-03-26T03:02:53.791Z,4.13
2023-03-26T03:05:20.340Z,4.82
2023-03-26T03:07:46.859Z,3.50
2023-03-26T03:10:14.309Z,4.18
2023-03-26T03:12:41.985Z,3.65
2023-03-26T03:15:09.292Z,3.97
2023-03-26T03:20:02.120Z,4.57
2023-03-26T03:22:28.893Z,4.70
2023-03-26T03:24:55.356Z,4.45
2023-03-26T03:27:21.802Z,5.97
2023-03-26T03:29:48.276Z,6.55
2023-03-26T03:32:14.748Z,9.60
2023-03-26T03:34:41.195Z,9.90
2023-03-26T03:37:07.682Z,8.93
2023-03-26T03:39:34.164Z,7.85
2023-03-26T03:42:00.675Z,7.53
2023-03-26T03:44:27.141Z,8.00
2023-03-26T03:46:53.648Z,7.05
2023-03-26T03:49:20.149Z,6.60
2023-03-26T03:51:46.646Z,6.60
2023-03-26T03:54:13.188Z,4.68
2023-03-26T03:56:39.772Z,5.88
2023-03-26T03:59:06.327Z,6.22
2023-03-26T04:01:32.790Z,6.35
2023-03-26T04:03:59.396Z,5.65
2023-03-26T04:06:26.091Z,5.28
2023-03-26T04:08:52.607Z,5.80
2023-03-26T04:11:19.122Z,5.97
2023-03-26T04:13:45.627Z,5.55
2023-03-26T04:16:12.145Z,6.30
2023-03-26T04:18:38.602Z,7.05
2023-03-26T04:21:05.838Z,7.22
2023-03-26T04:23:32.328Z,6.68
2023-03-26T04:26:02.510Z,5.22
2023-03-26T04:28:32.513Z,6.07
2023-03-26T04:31:01.142Z,6.45
2023-03-26T04:33:30.146Z,9.73
2023-03-26T04:35:57.324Z,7.60
2023-03-26T04:40:50.416Z,18.98
2023-03-26T04:43:17.194Z,15.98
2023-03-26T04:45:44.444Z,15.00
2023-03-26T04:48:11.120Z,18.10
2023-03-26T04:50:37.619Z,16.95
2023-03-26T04:53:04.069Z,9.70
2023-03-26T04:55:41.690Z,7.40
2023-03-26T04:58:08.185Z,8.05
2023-03-26T05:00:34.874Z,8.20
2023-03-26T05:03:01.381Z,6.40
2023-03-26T05:05:29.053Z,7.35
2023-03-26T05:07:55.507Z,9.38
2023-03-26T05:10:22.172Z,7.32
2023-03-26T05:12:48.871Z,6.72
2023-03-26T05:15:15.967Z,6.75
2023-03-26T05:17:42.888Z,9.98
2023-03-26T05:20:19.415Z,9.98
2023-03-26T05:22:46.170Z,7.65
2023-03-26T05:25:13.663Z,6.03
2023-03-26T05:27:40.369Z,5.82
2023-03-26T05:30:08.142Z,5.85
2023-03-26T05:32:34.697Z,5.22
2023-03-26T05:35:02.066Z,5.97
2023-03-26T05:37:29.372Z,5.20
2023-03-26T05:42:22.193Z,9.25
2023-03-26T05:44:49.053Z,42.05
2023-03-26T05:47:15.582Z,52.03
2023-03-26T05:49:42.115Z,20.88
2023-03-26T05:52:08.607Z,8.27
2023-03-26T05:54:35.120Z,6.43
2023-03-26T05:57:01.677Z,7.15
2023-03-26T05:59:28.469Z,5.03
2023-03-26T06:01:54.964Z,5.07
2023-03-26T06:04:21.564Z,5.57
2023-03-26T06:06:48.213Z,5.53
2023-03-26T06:09:14.692Z,6.47
2023-03-26T06:11:41.229Z,5.53
2023-03-26T06:14:07.739Z,4.80
2023-03-26T06:16:34.365Z,4.38
2023-03-26T06:19:00.880Z,4.57
2023-03-26T06:21:28.230Z,3.42
2023-03-26T06:23:55.460Z,8.48
2023-03-26T06:26:21.970Z,6.07
2023-03-26T06:28:48.772Z,5.82
2023-03-26T06:33:41.607Z,4.43
2023-03-26T06:36:08.545Z,4.28
2023-03-26T06:38:35.164Z,5.53
2023-03-26T06:41:03.531Z,4.70
2023-03-26T06:43:30.062Z,5.00
2023-03-26T06:45:56.534Z,4.55
2023-03-26T06:48:22.989Z,4.50
2023-03-26T06:50:49.476Z,4.78
2023-03-26T06:53:15.962Z,9.68
2023-03-26T06:55:42.428Z,9.80
2023-03-26T06:58:11.859Z,4.22
2023-03-26T07:00:38.806Z,5.55
2023-03-26T07:03:06.228Z,3.63
2023-03-26T07:05:32.791Z,3.25
2023-03-26T07:07:59.265Z,6.70
2023-03-26T07:10:25.789Z,3.42
2023-03-26T07:12:53.152Z,4.78
2023-03-26T07:15:19.595Z,4.85
2023-03-26T07:17:46.116Z,3.45
2023-03-26T07:20:12.876Z,4.05
2023-03-26T07:22:39.677Z,3.67
2023-03-26T07:27:51.141Z,4.32
2023-03-26T07:30:31.515Z,3.58
2023-03-26T07:33:00.835Z,3.83
2023-03-26T07:35:46.657Z,5.07
2023-03-26T07:41:32.702Z,9.00
2023-03-26T07:44:01.929Z,30.65
2023-03-26T07:46:33.123Z,2.97
2023-03-26T07:49:00.217Z,3.58
2023-03-26T07:51:27.337Z,2.83
2023-03-26T07:53:54.105Z,2.67
2023-03-26T07:59:23.193Z,2.97
2023-03-26T08:02:16.589Z,2.53
2023-03-26T08:04:54.382Z,2.03
2023-03-26T08:07:49.832Z,2.15
2023-03-26T08:10:23.531Z,2.85
2023-03-26T08:12:52.837Z,2.58
2023-03-26T08:15:28.387Z,11.30
2023-03-26T08:18:13.596Z,15.95
2023-03-26T08:20:48.916Z,1.52
2023-03-26T08:23:21.308Z,1.75
2023-03-26T08:25:57.340Z,2.47
2023-03-26T08:28:34.929Z,1.55
2023-03-26T08:31:01.693Z,3.28
2023-03-26T08:33:28.747Z,2.20
2023-03-26T08:35:55.301Z,1.58
2023-03-26T08:38:22.762Z,1.40
2023-03-26T08:41:10.939Z,1.45
2023-03-26T08:44:04.113Z,1.33
2023-03-26T08:47:09.937Z,1.95
2023-03-26T08:50:00.941Z,1.92
2023-03-26T08:52:45.790Z,5.45
2023-03-26T08:55:12.226Z,3.08
2023-03-26T08:57:59.998Z,1.33
2023-03-26T09:00:56.418Z,0.80
2023-03-26T09:03:50.770Z,1.15
2023-03-26T09:06:38.685Z,0.63
2023-03-26T09:09:22.133Z,1.88
2023-03-26T09:12:09.931Z,1.75
2023-03-26T09:14:57.784Z,1.48
2023-03-26T09:17:43.240Z,2.95
2023-03-26T09:20:30.624Z,1.85
2023-03-26T09:23:18.358Z,1.85
2023-03-26T09:25:44.776Z,1.30
2023-03-26T09:28:50.182Z,1.50
2023-03-26T09:31:52.468Z,7.93
2023-03-26T09:34:29.173Z,6.15
2023-03-26T09:37:25.622Z,1.60
2023-03-26T09:40:15.484Z,1.92
2023-03-26T09:43:00.119Z,2.10
2023-03-26T09:45:50.778Z,1.98
2023-03-26T09:48:43.393Z,1.45
2023-03-26T09:51:32.809Z,1.27
2023-03-26T09:54:25.013Z,1.60
2023-03-26T09:56:57.754Z,0.95
2023-03-26T10:00:01.524Z,1.65
2023-03-26T10:02:51.573Z,15.73
2023-03-26T10:05:18.019Z,3.38
2023-03-26T10:08:01.176Z,1.92
2023-03-26T10:10:55.675Z,1.60
2023-03-26T10:13:41.090Z,1.85
2023-03-26T10:16:19.518Z,2.72
2023-03-26T10:19:19.560Z,1.40
2023-03-26T10:21:59.607Z,1.85
2023-03-26T10:24:57.246Z,1.20
2023-03-26T10:27:32.573Z,1.95
2023-03-26T10:30:17.492Z,11.50
2023-03-26T10:32:51.183Z,2.75
2023-03-26T10:35:42.037Z,0.90
2023-03-26T10:38:35.562Z,1.73
2023-03-26T10:41:20.816Z,1.92
2023-03-26T10:44:07.348Z,1.90
2023-03-26T10:46:41.589Z,2.17
2023-03-26T10:52:06.595Z,1.92
2023-03-26T10:54:53.355Z,1.25
2023-03-26T10:57:41.373Z,0.75
2023-03-26T11:00:18.071Z,1.35
2023-03-26T11:03:03.374Z,0.93
2023-03-26T11:05:51.464Z,0.80
2023-03-26T11:08:31.976Z,0.75
2023-03-26T11:11:19.393Z,1.60
2023-03-26T11:13:45.862Z,1.70
2023-03-26T11:16:34.038Z,0.95
2023-03-26T11:19:22.002Z,1.27
2023-03-26T11:22:20.472Z,0.88
2023-03-26T11:25:00.875Z,0.57
2023-03-26T11:27:52.766Z,0.98
2023-03-26T11:33:00.212Z,1.67
2023-03-26T11:35:39.591Z,1.90
2023-03-26T11:38:17.167Z,1.65
2023-03-26T11:40:46.025Z,1.98
2023-03-26T11:43:14.737Z,2.15
2023-03-26T11:45:46.449Z,4.55
2023-03-26T11:48:24.721Z,12.50
2023-03-26T11:50:58.359Z,3.42
2023-03-26T11:53:29.442Z,1.40
2023-03-26T11:56:04.207Z,1.63
2023-03-26T11:58:54.501Z,0.98
2023-03-26T12:01:49.170Z,0.55
2023-03-26T12:04:18.334Z,0.30
2023-03-26T12:07:06.662Z,0.88
2023-03-26T12:09:33.166Z,1.90
2023-03-26T12:14:29.957Z,2.80
2023-03-26T12:17:07.004Z,3.67
2023-03-26T12:19:42.487Z,1.60
2023-03-26T12:22:37.502Z,1.67
2023-03-26T12:25:25.327Z,2.03
2023-03-26T12:27:57.491Z,6.32
2023-03-26T12:30:26.877Z,1.30
2023-03-26T12:32:58.957Z,0.95
2023-03-26T12:35:27.946Z,1.38
2023-03-26T12:37:56.709Z,1.27
2023-03-26T12:40:29.372Z,3.58
2023-03-26T12:44:49.470Z,5.20
2023-03-26T12:46:03.728Z,4.13
2023-03-26T12:48:41.640Z,24.55
2023-03-26T12:51:19.354Z,15.57
2023-03-26T12:54:06.512Z,5.50
2023-03-26T12:56:42.761Z,8.57
2023-03-26T12:59:21.125Z,10.02
2023-03-26T13:01:52.722Z,4.43
2023-03-26T13:04:36.330Z,5.82
2023-03-26T13:07:21.660Z,15.30
2023-03-26T13:09:52.834Z,9.73
2023-03-26T13:13:04.982Z,11.88
2023-03-26T13:15:38.847Z,11.43
2023-03-26T13:18:13.227Z,8.73
2023-03-26T13:20:54.711Z,8.77
2023-03-26T13:23:27.317Z,3.55
2023-03-26T13:26:23.059Z,0.77
2023-03-26T13:29:22.149Z,1.63
2023-03-26T13:32:03.753Z,2.65
2023-03-26T13:35:12.278Z,0.80
2023-03-26T13:37:54.189Z,2.28
2023-03-26T13:40:42.497Z,1.15
2023-03-26T13:43:30.875Z,5.15
2023-03-26T13:46:18.505Z,1.40
2023-03-26T13:48:57.567Z,1.20
2023-03-26T13:54:22.528Z,3.03
2023-03-26T13:57:06.297Z,2.65
2023-03-26T13:59:40.710Z,12.80
2023-03-26T14:02:23.161Z,0.80
2023-03-26T14:04:56.587Z,0.80
2023-03-26T14:07:27.260Z,1.05
2023-03-26T14:10:01.651Z,1.15
2023-03-26T14:12:34.111Z,1.10
2023-03-26T14:15:05.152Z,1.20
2023-03-26T14:17:55.413Z,1.15
2023-03-26T14:20:43.493Z,1.00
2023-03-26T14:23:22.173Z,0.55
2023-03-26T14:26:04.236Z,0.63
2023-03-26T14:28:51.600Z,0.63
2023-03-26T14:31:35.734Z,1.10
2023-03-26T14:34:22.263Z,0.90
2023-03-26T14:37:13.122Z,1.13
2023-03-26T14:39:48.619Z,1.40
2023-03-26T14:42:36.140Z,12.07
2023-03-26T14:45:27.601Z,2.92
2023-03-26T14:48:31.584Z,2.85
2023-03-26T14:51:17.521Z,5.43
2023-03-26T14:53:52.337Z,12.55
2023-03-26T14:56:24.543Z,8.88
2023-03-26T14:59:06.165Z,14.38
2023-03-26T15:01:56.104Z,7.47
2023-03-26T15:04:41.188Z,5.13
2023-03-26T15:07:48.921Z,3.95
2023-03-26T15:10:43.014Z,7.40
2023-03-26T15:13:33.786Z,6.55
2023-03-26T15:16:45.040Z,10.15
2023-03-26T15:20:00.546Z,6.35
2023-03-26T15:22:45.633Z,5.97
2023-03-26T15:25:14.834Z,4.68
2023-03-26T15:28:05.411Z,3.25
2023-03-26T15:30:34.976Z,6.00
2023-03-26T15:33:25.912Z,5.28
2023-03-26T15:36:11.191Z,3.95
2023-03-26T15:39:02.324Z,2.05
2023-03-26T16:10:32.536Z,11.60
2023-03-26T16:13:17.392Z,14.15
2023-03-26T16:15:53.227Z,65.50
2023-03-26T16:18:28.411Z,5.72
2023-03-26T16:21:03.347Z,8.80
2023-03-26T16:23:55.058Z,7.25
2023-03-26T16:26:54.531Z,12.10
2023-03-26T16:29:23.196Z,14.95
2023-03-26T16:32:08.324Z,18.23
2023-03-26T16:34:52.911Z,24.15
2023-03-26T16:37:42.393Z,70.05
2023-03-26T16:40:17.719Z,65.90
2023-03-26T16:43:18.016Z,56.95
2023-03-26T16:45:50.345Z,46.42
2023-03-26T16:48:29.493Z,43.33
2023-03-26T16:51:14.268Z,51.78
2023-03-26T16:54:00.554Z,50.78
2023-03-26T16:56:50.147Z,51.33
2023-03-26T17:00:07.846Z,49.90
2023-03-26T17:02:40.852Z,81.22
2023-03-26T17:05:32.487Z,113.20
2023-03-26T17:08:14.710Z,89.38
2023-03-26T17:11:00.342Z,82.88
2023-03-26T17:14:00.178Z,100.25
2023-03-26T17:16:34.149Z,88.68
2023-03-26T17:19:19.027Z,87.80
2023-03-26T17:22:16.603Z,89.88
2023-03-26T17:25:14.524Z,124.63
2023-03-26T17:27:51.614Z,85.07
2023-03-26T17:30:30.241Z,104.20
2023-03-26T17:33:02.470Z,132.80
2023-03-26T17:35:47.715Z,138.02
2023-03-26T17:38:16.895Z,135.80
2023-03-26T17:40:58.421Z,102.25
2023-03-26T17:43:48.810Z,75.57
2023-03-26T17:46:47.116Z,66.85
2023-03-26T17:49:22.131Z,62.35
2023-03-26T17:51:58.165Z,67.55
2023-03-26T17:54:38.975Z,89.25
2023-03-26T17:57:29.951Z,77.57
2023-03-26T17:59:58.752Z,98.65
2023-03-26T18:02:36.945Z,99.78
2023-03-26T18:05:07.991Z,95.53
2023-03-26T18:07:55.545Z,94.82
2023-03-26T18:10:52.380Z,81.90
2023-03-26T18:13:31.225Z,79.60
2023-03-26T18:16:13.994Z,78.57
2023-03-26T18:19:04.617Z,76.28
2023-03-26T18:21:39.498Z,73.75
2023-03-26T18:24:08.361Z,71.85
2023-03-26T18:26:41.334Z,126.85
2023-03-26T18:29:19.771Z,102.65
2023-03-26T18:31:49.269Z,103.65
2023-03-26T18:34:17.149Z,117.63
2023-03-26T18:36:43.659Z,117.15
2023-03-26T18:39:13.083Z,120.82
2023-03-26T18:41:42.159Z,107.95
2023-03-26T18:44:16.037Z,112.82
2023-03-26T18:46:43.070Z,138.90
2023-03-26T18:49:15.581Z,112.35
2023-03-26T18:51:56.161Z,104.05
2023-03-26T18:54:24.950Z,118.18
2023-03-26T18:56:51.455Z,112.55
2023-03-26T18:59:31.176Z,109.13
2023-03-26T19:02:10.515Z,109.32
2023-03-26T19:04:37.932Z,114.88
2023-03-26T19:07:09.072Z,121.32
2023-03-26T19:09:35.959Z,111.68
2023-03-26T19:12:21.208Z,102.97
2023-03-26T19:15:04.565Z,97.68
2023-03-26T19:17:40.588Z,112.25
2023-03-26T19:20:15.373Z,97.20
2023-03-26T19:22:42.448Z,131.98
2023-03-26T19:25:19.220Z,133.38
2023-03-26T19:27:45.796Z,133.95
2023-03-26T19:30:20.959Z,125.10
2023-03-26T19:32:53.680Z,128.25
2023-03-26T19:35:22.433Z,131.88
2023-03-26T19:37:50.735Z,124.05
2023-03-26T19:40:23.058Z,143.25
2023-03-26T19:42:49.618Z,128.70
2023-03-26T19:45:19.733Z,132.63
2023-03-26T19:47:54.323Z,118.35
2023-03-26T19:50:30.000Z,105.28
2023-03-26T19:53:16.113Z,88.10
2023-03-26T19:55:53.672Z,79.22
2023-03-26T19:58:20.244Z,80.57
2023-03-26T20:00:46.846Z,57.58
2023-03-26T20:03:14.520Z,38.75
2023-03-26T20:05:41.150Z,38.80
2023-03-26T20:08:15.712Z,39.33
2023-03-26T20:10:42.917Z,41.45
2023-03-26T20:15:40.804Z,48.35
2023-03-26T20:18:07.335Z,57.63
2023-03-26T20:20:34.010Z,58.55
2023-03-26T20:23:00.503Z,59.65
2023-03-26T20:25:32.320Z,61.22
2023-03-26T20:27:58.920Z,53.65
2023-03-26T20:33:12.888Z,56.72
2023-03-26T20:35:40.216Z,54.17
2023-03-26T20:38:06.773Z,48.58
2023-03-26T20:40:33.258Z,61.97
2023-03-26T20:42:59.708Z,62.85
2023-03-26T20:45:26.171Z,87.43
2023-03-26T20:47:52.629Z,93.28
2023-03-26T20:50:21.703Z,83.20
2023-03-26T20:52:49.624Z,78.65
2023-03-26T20:55:18.742Z,72.65
2023-03-26T20:57:45.211Z,65.30
2023-03-26T21:00:12.787Z,68.03
2023-03-26T21:02:41.866Z,59.47
2023-03-26T21:05:11.060Z,72.05
2023-03-26T21:07:37.730Z,75.57
2023-03-26T21:10:04.740Z,71.32
2023-03-26T21:12:34.668Z,66.25
2023-03-26T21:15:03.293Z,60.50
2023-03-26T21:17:31.855Z,52.80
2023-03-26T21:19:58.574Z,49.58
2023-03-26T21:22:37.271Z,54.90
2023-03-26T21:25:23.956Z,48.38
2023-03-26T21:28:15.269Z,43.85
2023-03-26T21:30:41.986Z,40.17
2023-03-26T21:33:08.530Z,43.40
2023-03-26T21:35:35.500Z,42.08
2023-03-26T21:38:04.153Z,47.35
2023-03-26T21:40:30.903Z,44.00
2023-03-26T21:42:57.830Z,41.88
2023-03-26T21:45:24.632Z,40.67
2023-03-26T21:47:51.469Z,38.58
2023-03-26T21:50:20.532Z,35.58
2023-03-26T21:52:47.618Z,34.50
2023-03-26T21:55:14.723Z,43.85
2023-03-26T21:57:47.280Z,57.95
2023-03-26T22:00:17.198Z,45.08
2023-03-26T22:03:25.069Z,45.83
2023-03-26T22:05:59.443Z,46.97
2023-03-26T22:08:40.766Z,40.08
2023-03-26T22:11:10.078Z,47.80
2023-03-26T22:13:36.966Z,50.45
2023-03-26T22:16:03.760Z,40.50
2023-03-26T22:18:30.389Z,44.70
2023-03-26T22:20:57.706Z,36.15
2023-03-26T22:23:24.360Z,32.15
2023-03-26T22:25:50.817Z,30.08
2023-03-26T22:28:17.424Z,28.48
2023-03-26T22:30:44.004Z,25.33
2023-03-26T22:33:10.913Z,29.52
2023-03-26T22:35:38.617Z,34.17
2023-03-26T22:38:05.488Z,33.70
2023-03-26T22:40:31.905Z,36.65
2023-03-26T22:42:58.352Z,35.85
2023-03-26T22:45:24.859Z,35.78
2023-03-26T22:47:51.435Z,35.38
2023-03-26T22:50:29.710Z,33.40
2023-03-26T22:52:56.240Z,34.58
2023-03-26T22:55:28.783Z,37.65
2023-03-26T22:57:56.105Z,37.90
2023-03-26T23:00:22.704Z,41.55
2023-03-26T23:02:49.282Z,36.13
2023-03-26T23:05:16.380Z,39.67
2023-03-26T23:07:43.147Z,49.65
2023-03-26T23:10:10.705Z,44.60
2023-03-26T23:12:38.325Z,37.85
2023-03-26T23:15:06.149Z,40.22
2023-03-26T23:17:34.337Z,39.03
2023-03-26T23:20:02.458Z,38.42
2023-03-26T23:22:28.923Z,36.97
2023-03-26T23:24:55.358Z,38.53
2023-03-26T23:27:22.738Z,36.75
2023-03-26T23:32:24.062Z,33.10
2023-03-26T23:34:51.927Z,33.05
2023-03-26T23:37:19.065Z,28.33
2023-03-26T23:39:45.516Z,32.53
2023-03-26T23:42:11.966Z,34.35
2023-03-26T23:44:38.406Z,36.13
2023-03-26T23:47:05.011Z,33.88
2023-03-26T23:49:31.460Z,33.97
2023-03-26T23:51:57.907Z,27.98
2023-03-26T23:54:24.366Z,25.08
2023-03-26T23:56:50.870Z,19.42
2023-03-26T23:59:17.395Z,20.42
